Time;durP1;ratioP1;P1;durP2;ratioP2;P2;SDS_P1;SDS_P2;PMS_P1;PMS_P2;Temp;Humidity;BMP_temperature;BMP_pressure;BME280_temperature;BME280_humidity;BME280_pressure;Samples;Min_cycle;Max_cycle;Signal;HPM_P1;HPM_P2
2021/08/24 00:02:04;;;;;;;10.48;4.90;;;15.60;99.90;;;;;;5095696;28;20036;-75
2021/08/24 00:04:30;;;;;;;8.02;4.93;;;15.60;99.90;;;;;;5094269;28;20044;-75
2021/08/24 00:06:56;;;;;;;9.57;5.38;;;15.60;99.90;;;;;;5095216;28;20036;-75
2021/08/24 00:09:21;;;;;;;7.63;4.85;;;15.60;99.90;;;;;;5095347;28;20111;-75
2021/08/24 00:11:47;;;;;;;11.88;4.88;;;15.60;99.90;;;;;;5095433;28;20036;-75
2021/08/24 00:14:13;;;;;;;8.77;4.47;;;15.60;99.90;;;;;;5095318;28;20532;-75
2021/08/24 00:16:42;;;;;;;6.05;4.03;;;15.60;99.90;;;;;;5095572;28;20028;-75
2021/08/24 00:19:09;;;;;;;8.10;4.22;;;15.60;99.90;;;;;;5094692;28;20089;-75
2021/08/24 00:21:36;;;;;;;10.18;5.20;;;15.70;99.90;;;;;;5095076;28;20036;-75
2021/08/24 00:24:03;;;;;;;5.20;3.72;;;15.70;99.90;;;;;;5094982;28;20555;-75
2021/08/24 00:26:28;;;;;;;8.10;4.20;;;15.70;99.90;;;;;;5095090;28;20032;-75
2021/08/24 00:28:54;;;;;;;7.25;4.38;;;15.60;99.90;;;;;;5094915;28;20391;-75
2021/08/24 00:31:19;;;;;;;8.15;4.93;;;15.50;99.90;;;;;;5094913;28;20480;-75
2021/08/24 00:33:45;;;;;;;7.65;4.47;;;15.50;99.90;;;;;;5095321;28;20077;-75
2021/08/24 00:36:13;;;;;;;9.15;5.07;;;15.50;99.90;;;;;;5094817;28;20051;-75
2021/08/24 00:38:40;;;;;;;7.68;4.68;;;15.50;99.90;;;;;;5094636;28;20531;-75
2021/08/24 00:41:05;;;;;;;8.20;4.85;;;15.50;99.90;;;;;;5094759;28;20111;-75
2021/08/24 00:43:34;;;;;;;8.27;4.68;;;15.40;99.90;;;;;;5094597;28;20434;-75
2021/08/24 00:46:18;;;;;;;8.90;5.03;;;15.40;99.90;;;;;;5093773;28;20036;-75
2021/08/24 00:48:44;;;;;;;8.07;4.90;;;15.40;99.90;;;;;;5094131;28;20055;-75
2021/08/24 00:51:13;;;;;;;8.20;5.18;;;15.40;99.90;;;;;;5094383;28;20035;-75
2021/08/24 00:53:38;;;;;;;11.10;6.15;;;15.30;99.90;;;;;;5093327;28;20517;-75
2021/08/24 00:56:06;;;;;;;9.38;4.80;;;15.30;99.90;;;;;;5094237;28;20122;-75
2021/08/24 00:58:32;;;;;;;7.07;4.25;;;15.30;99.90;;;;;;5093044;28;20040;-75
2021/08/24 01:00:58;;;;;;;7.68;4.28;;;15.40;99.90;;;;;;5092795;28;20044;-75
2021/08/24 01:03:30;;;;;;;10.23;5.05;;;15.30;99.90;;;;;;5094284;28;20039;-75
2021/08/24 01:06:01;;;;;;;9.65;5.25;;;15.30;99.90;;;;;;5092783;28;20046;-75
2021/08/24 01:08:55;;;;;;;10.02;5.20;;;15.30;99.90;;;;;;5093976;28;20218;-75
2021/08/24 01:11:31;;;;;;;5.43;4.57;;;15.30;99.90;;;;;;5094239;28;20448;-75
2021/08/24 01:14:10;;;;;;;9.25;5.53;;;15.30;99.90;;;;;;5094154;28;20048;-75
2021/08/24 01:16:47;;;;;;;11.82;5.97;;;15.20;99.90;;;;;;5094266;28;20468;-75
2021/08/24 01:19:57;;;;;;;8.48;5.25;;;15.20;99.90;;;;;;5093548;28;20044;-75
2021/08/24 01:22:31;;;;;;;9.07;5.30;;;15.00;99.90;;;;;;5074713;28;20527;-75
2021/08/24 01:25:07;;;;;;;6.72;5.43;;;15.00;99.90;;;;;;5091706;28;20044;-75
2021/08/24 01:27:38;;;;;;;9.82;6.45;;;15.10;99.90;;;;;;5092856;28;20048;-75
2021/08/24 01:30:20;;;;;;;9.02;6.43;;;14.90;99.90;;;;;;5093536;28;20044;-75
2021/08/24 01:33:22;;;;;;;11.30;6.53;;;14.90;99.90;;;;;;5093837;28;20126;-75
2021/08/24 01:36:07;;;;;;;15.13;7.22;;;14.80;99.90;;;;;;5093484;28;20122;-75
2021/08/24 01:39:08;;;;;;;17.00;7.28;;;14.70;99.90;;;;;;5093307;28;20580;-75
2021/08/24 01:41:55;;;;;;;11.07;6.97;;;14.70;99.90;;;;;;5093481;28;20396;-75
2021/08/24 01:44:23;;;;;;;11.23;6.97;;;14.70;99.90;;;;;;5093247;28;20396;-75
2021/08/24 01:47:12;;;;;;;14.35;7.03;;;14.70;99.90;;;;;;5093331;28;20036;-75
2021/08/24 01:49:45;;;;;;;12.57;7.25;;;14.70;99.90;;;;;;5093029;28;20505;-75
2021/08/24 01:52:16;;;;;;;;;;;14.70;99.90;;;;;;5093027;28;20384;-75
2021/08/24 01:55:05;;;;;;;11.30;7.18;;;14.70;99.90;;;;;;5093661;28;19986;-75
2021/08/24 01:57:38;;;;;;;9.43;6.68;;;14.60;99.90;;;;;;5092890;28;20056;-75
2021/08/24 02:00:11;;;;;;;11.60;7.32;;;14.60;99.90;;;;;;5093181;28;20058;-75
2021/08/24 02:02:48;;;;;;;9.80;6.28;;;14.60;99.90;;;;;;5092457;28;20142;-75
2021/08/24 02:05:27;;;;;;;10.85;6.50;;;14.70;99.90;;;;;;5075347;28;20436;-75
2021/08/24 02:07:59;;;;;;;13.20;7.35;;;14.70;99.90;;;;;;5093277;28;20040;-75
2021/08/24 02:10:25;;;;;;;12.73;6.78;;;14.70;99.90;;;;;;5093094;28;20121;-75
2021/08/24 02:12:53;;;;;;;11.27;6.88;;;14.70;99.90;;;;;;5093330;28;20036;-75
2021/08/24 02:15:27;;;;;;;11.35;7.15;;;14.70;99.90;;;;;;5092162;28;20101;-75
2021/08/24 02:17:55;;;;;;;11.25;6.65;;;14.70;99.90;;;;;;5093339;28;20074;-75
2021/08/24 02:20:44;;;;;;;9.90;6.63;;;14.60;99.90;;;;;;5092956;28;20113;-75
2021/08/24 02:23:15;;;;;;;9.95;6.55;;;14.70;99.90;;;;;;5092730;28;20551;-75
2021/08/24 02:25:45;;;;;;;11.88;7.40;;;14.80;99.90;;;;;;5092843;28;20403;-75
2021/08/24 02:28:32;;;;;;;9.40;6.90;;;14.70;99.90;;;;;;5093050;28;20040;-75
2021/08/24 02:31:05;;;;;;;13.55;6.55;;;14.80;99.90;;;;;;5092792;28;20054;-75
2021/08/24 02:33:41;;;;;;;13.07;6.50;;;14.70;99.90;;;;;;5093564;28;20036;-75
2021/08/24 02:36:11;;;;;;;12.70;6.72;;;14.70;99.90;;;;;;5092913;28;20123;-75
2021/08/24 02:38:38;;;;;;;12.25;7.45;;;14.80;99.90;;;;;;5093061;28;20036;-75
2021/08/24 02:41:18;;;;;;;9.65;6.20;;;14.70;99.90;;;;;;5092813;28;20127;-75
2021/08/24 02:44:04;;;;;;;10.15;5.95;;;14.80;99.90;;;;;;5093314;28;20089;-75
2021/08/24 02:46:34;;;;;;;12.43;6.85;;;14.80;99.90;;;;;;5092820;28;20419;-75
2021/08/24 02:49:04;;;;;;;9.20;6.95;;;14.70;99.90;;;;;;5092307;28;20484;-75
2021/08/24 02:51:31;;;;;;;14.43;6.72;;;14.80;99.90;;;;;;5085704;28;20040;-75
2021/08/24 02:54:08;;;;;;;13.85;6.93;;;14.70;99.90;;;;;;5071751;28;20037;-75
2021/08/24 02:56:34;;;;;;;15.15;8.05;;;14.80;99.90;;;;;;5072440;28;20036;-75
2021/08/24 02:59:00;;;;;;;11.18;6.80;;;14.70;99.90;;;;;;5072479;28;20115;-75
2021/08/24 03:01:25;;;;;;;11.45;7.55;;;14.70;99.90;;;;;;5072881;28;20472;-75
2021/08/24 03:03:54;;;;;;;13.85;6.90;;;14.70;99.90;;;;;;5072302;28;20372;-75
2021/08/24 03:06:20;;;;;;;10.90;6.60;;;14.70;99.90;;;;;;5072537;28;20063;-75
2021/08/24 03:08:47;;;;;;;10.75;6.15;;;14.70;99.90;;;;;;5072406;28;20107;-75
2021/08/24 03:11:16;;;;;;;10.40;7.03;;;14.70;99.90;;;;;;5070981;28;20484;-75
2021/08/24 03:14:04;;;;;;;9.57;6.80;;;14.70;99.90;;;;;;5070809;28;20055;-75
2021/08/24 03:16:37;;;;;;;13.73;6.97;;;14.70;99.90;;;;;;5072248;28;20041;-75
2021/08/24 03:19:13;;;;;;;9.48;5.75;;;14.70;99.90;;;;;;5070825;28;20410;-75
2021/08/24 03:21:40;;;;;;;12.52;6.10;;;14.70;99.90;;;;;;5072737;28;20040;-75
2021/08/24 03:24:12;;;;;;;12.50;6.10;;;14.80;99.90;;;;;;5075627;28;20044;-75
2021/08/24 03:26:41;;;;;;;8.57;6.20;;;14.80;99.90;;;;;;5076477;28;20068;-75
2021/08/24 03:29:15;;;;;;;11.80;6.63;;;14.70;99.90;;;;;;5075734;28;20170;-75
2021/08/24 03:31:42;;;;;;;11.63;6.65;;;14.70;99.90;;;;;;5074916;28;20045;-75
2021/08/24 03:34:08;;;;;;;10.02;6.50;;;14.60;99.90;;;;;;5076219;28;20049;-75
2021/08/24 03:36:34;;;;;;;10.02;5.95;;;14.60;99.90;;;;;;5074683;28;20045;-75
2021/08/24 03:39:00;;;;;;;10.30;6.75;;;14.60;99.90;;;;;;5057649;28;20043;-75
2021/08/24 03:41:26;;;;;;;10.57;6.40;;;14.60;99.90;;;;;;5075709;28;20040;-75
2021/08/24 03:43:52;;;;;;;15.13;7.22;;;14.60;99.90;;;;;;5075857;28;20045;-75
2021/08/24 03:46:20;;;;;;;13.23;7.22;;;14.60;99.90;;;;;;5075756;28;20396;-75
2021/08/24 03:48:46;;;;;;;10.88;7.18;;;14.50;99.90;;;;;;5075632;28;20569;-75
2021/08/24 03:51:11;;;;;;;10.85;6.53;;;14.50;99.90;;;;;;5075465;28;20029;-75
2021/08/24 03:53:37;;;;;;;11.38;6.32;;;14.40;99.90;;;;;;5075598;28;20048;-75
2021/08/24 03:56:05;;;;;;;13.57;6.03;;;14.50;99.90;;;;;;5075560;28;20124;-74
2021/08/24 03:58:31;;;;;;;10.15;6.40;;;14.50;99.90;;;;;;5075168;28;20123;-75
2021/08/24 04:00:57;;;;;;;10.52;6.88;;;14.50;99.90;;;;;;5075411;28;20064;-75
2021/08/24 04:03:22;;;;;;;12.38;7.28;;;14.50;99.90;;;;;;5075345;28;20072;-75
2021/08/24 04:05:48;;;;;;;9.52;6.65;;;14.50;99.90;;;;;;5075479;28;20036;-74
2021/08/24 04:08:13;;;;;;;12.73;6.93;;;14.40;99.90;;;;;;5075443;28;20399;-75
2021/08/24 04:10:40;;;;;;;12.15;6.88;;;14.50;99.90;;;;;;5075284;28;20052;-75
2021/08/24 04:13:05;;;;;;;11.27;6.97;;;14.40;99.90;;;;;;5075230;28;20047;-75
2021/08/24 04:15:31;;;;;;;12.70;7.18;;;14.50;99.90;;;;;;5074949;28;20547;-75
2021/08/24 04:17:57;;;;;;;16.10;7.47;;;14.50;99.90;;;;;;5075607;28;20051;-75
2021/08/24 04:20:23;;;;;;;12.75;7.43;;;14.50;99.90;;;;;;5075109;28;20488;-75
2021/08/24 04:22:51;;;;;;;12.32;7.80;;;14.40;99.90;;;;;;5074851;28;20041;-75
2021/08/24 04:25:17;;;;;;;10.63;6.63;;;14.40;99.90;;;;;;5074889;28;20076;-75
2021/08/24 04:27:44;;;;;;;15.35;6.60;;;14.50;99.90;;;;;;5074614;28;20411;-75
2021/08/24 04:30:10;;;;;;;12.15;7.32;;;14.50;99.90;;;;;;5074610;28;20045;-75
2021/08/24 04:32:40;;;;;;;11.30;6.65;;;14.50;99.90;;;;;;5074831;28;20388;-75
2021/08/24 04:35:06;;;;;;;14.45;7.18;;;14.50;99.90;;;;;;5073552;28;20051;-75
2021/08/24 04:37:32;;;;;;;11.95;6.57;;;14.40;99.90;;;;;;5074490;28;20045;-75
2021/08/24 04:39:57;;;;;;;10.38;6.72;;;14.40;99.90;;;;;;5073162;28;20047;-75
2021/08/24 04:42:23;;;;;;;12.68;6.68;;;14.40;99.90;;;;;;5074281;28;20431;-75
2021/08/24 04:44:49;;;;;;;11.40;6.90;;;14.40;99.90;;;;;;5073095;28;20119;-75
2021/08/24 04:47:14;;;;;;;10.13;6.72;;;14.50;99.90;;;;;;5074516;28;20154;-75
2021/08/24 04:49:40;;;;;;;11.43;6.80;;;14.50;99.90;;;;;;5074063;28;20036;-75
2021/08/24 04:52:08;;;;;;;9.75;7.13;;;14.50;99.90;;;;;;5074212;28;20075;-75
2021/08/24 04:54:34;;;;;;;14.73;7.60;;;14.60;99.90;;;;;;5074145;28;20036;-75
2021/08/24 04:57:01;;;;;;;11.73;6.72;;;14.60;99.90;;;;;;5074222;28;20093;-75
2021/08/24 04:59:27;;;;;;;10.88;6.72;;;14.60;99.90;;;;;;5073969;28;20044;-75
2021/08/24 05:01:52;;;;;;;12.95;6.85;;;14.60;99.90;;;;;;5074415;28;20029;-75
2021/08/24 05:04:18;;;;;;;10.43;5.88;;;14.70;99.90;;;;;;5074290;28;20049;-75
2021/08/24 05:06:43;;;;;;;9.75;6.40;;;14.70;99.90;;;;;;5073945;28;20037;-75
2021/08/24 05:09:09;;;;;;;12.55;7.07;;;14.80;99.90;;;;;;5073946;28;20162;-75
2021/08/24 05:11:34;;;;;;;12.10;6.82;;;14.80;99.90;;;;;;5072884;28;20396;-75
2021/08/24 05:14:00;;;;;;;12.77;7.22;;;14.90;99.90;;;;;;5073669;28;20511;-75
2021/08/24 05:16:26;;;;;;;9.02;6.97;;;14.90;99.90;;;;;;5074102;28;20040;-75
2021/08/24 05:18:52;;;;;;;9.57;6.07;;;15.10;99.90;;;;;;5073598;28;20040;-75
2021/08/24 05:21:18;;;;;;;11.93;8.38;;;15.20;99.90;;;;;;5072788;28;20032;-75
2021/08/24 05:23:44;;;;;;;10.43;6.45;;;15.30;99.90;;;;;;5073807;28;20052;-75
2021/08/24 05:26:16;;;;;;;14.52;6.78;;;15.50;99.90;;;;;;5073553;28;20032;-75
2021/08/24 05:28:42;;;;;;;9.18;6.68;;;15.50;99.90;;;;;;5073389;28;20040;-75
2021/08/24 05:31:08;;;;;;;11.60;6.45;;;15.70;99.90;;;;;;5073372;28;20514;-75
2021/08/24 05:33:34;;;;;;;9.82;6.20;;;15.80;99.90;;;;;;5074063;28;20036;-75
2021/08/24 05:36:00;;;;;;;6.82;6.07;;;16.00;99.90;;;;;;5072529;28;20044;-75
2021/08/24 05:38:28;;;;;;;10.05;6.47;;;16.10;99.90;;;;;;5073623;28;20387;-75
2021/08/24 05:40:55;;;;;;;8.00;5.40;;;16.20;99.90;;;;;;5072089;28;20048;-75
2021/08/24 05:43:21;;;;;;;11.73;5.80;;;16.40;99.90;;;;;;5073721;28;20044;-75
2021/08/24 05:45:56;;;;;;;10.82;5.45;;;16.60;99.90;;;;;;5073215;28;20029;-75
2021/08/24 05:48:23;;;;;;;10.10;5.72;;;16.80;99.90;;;;;;5072164;28;20036;-76
2021/08/24 05:50:49;;;;;;;7.88;5.10;;;16.80;99.90;;;;;;5072929;28;20543;-75
2021/08/24 05:53:15;;;;;;;10.27;5.72;;;17.00;99.90;;;;;;5071835;28;20174;-75
2021/08/24 05:55:40;;;;;;;8.77;5.88;;;17.10;99.90;;;;;;5071721;28;20047;-75
2021/08/24 05:58:06;;;;;;;8.68;4.35;;;17.30;99.90;;;;;;5071911;28;20171;-75
2021/08/24 06:00:31;;;;;;;8.52;4.47;;;17.30;99.90;;;;;;5072539;28;20045;-75
2021/08/24 06:02:57;;;;;;;7.07;4.50;;;17.60;99.90;;;;;;5073034;28;20040;-75
2021/08/24 06:05:22;;;;;;;7.80;5.18;;;17.70;99.90;;;;;;5073021;28;20047;-75
2021/08/24 06:07:48;;;;;;;8.45;4.72;;;17.80;99.90;;;;;;5073422;28;20036;-74
2021/08/24 06:10:14;;;;;;;9.23;4.70;;;17.70;99.90;;;;;;5071747;28;20036;-75
2021/08/24 06:12:40;;;;;;;10.88;4.95;;;17.90;99.90;;;;;;5073125;28;20037;-75
2021/08/24 06:15:07;;;;;;;10.10;4.80;;;18.00;99.90;;;;;;5073120;28;20036;-77
2021/08/24 06:17:33;;;;;;;11.30;5.22;;;18.10;99.90;;;;;;5071753;28;20090;-75
2021/08/24 06:19:59;;;;;;;6.80;4.60;;;18.30;99.90;;;;;;5072822;28;20040;-75
2021/08/24 06:22:24;;;;;;;9.00;4.65;;;18.30;99.90;;;;;;5055360;28;20048;-75
2021/08/24 06:24:50;;;;;;;7.78;3.80;;;18.50;99.90;;;;;;5072760;28;20068;-75
2021/08/24 06:27:16;;;;;;;7.22;4.55;;;18.70;99.90;;;;;;5054796;28;20037;-75
2021/08/24 06:29:41;;;;;;;10.85;4.57;;;18.80;99.90;;;;;;5072505;28;20455;-75
2021/08/24 06:32:36;;;;;;;8.25;4.05;;;18.60;99.90;;;;;;5072809;28;20041;-75
2021/08/24 06:35:03;;;;;;;5.70;4.07;;;19.00;99.90;;;;;;5072611;28;20055;-75
2021/08/24 06:37:29;;;;;;;6.85;3.35;;;19.10;99.90;;;;;;5072737;28;20041;-75
2021/08/24 06:39:55;;;;;;;6.30;3.53;;;19.30;99.90;;;;;;5072550;28;20047;-75
2021/08/24 06:42:23;;;;;;;9.77;3.65;;;19.30;99.90;;;;;;5072582;28;20121;-75
2021/08/24 06:44:49;;;;;;;5.50;3.42;;;19.60;99.90;;;;;;5072739;28;20119;-75
2021/08/24 06:47:14;;;;;;;9.38;3.83;;;19.70;99.90;;;;;;5054798;28;20129;-75
2021/08/24 06:49:40;;;;;;;8.35;3.63;;;19.70;99.90;;;;;;5072359;28;20036;-75
2021/08/24 06:52:06;;;;;;;5.82;3.65;;;19.70;99.90;;;;;;5072445;28;20028;-75
2021/08/24 06:54:33;;;;;;;9.65;3.40;;;19.90;99.90;;;;;;5072520;28;20496;-74
2021/08/24 06:57:01;;;;;;;6.45;3.30;;;19.90;99.90;;;;;;5073152;28;20036;-75
2021/08/24 06:59:26;;;;;;;6.03;2.85;;;19.70;99.90;;;;;;5076191;28;20055;-75
2021/08/24 07:01:52;;;;;;;7.47;3.42;;;20.10;99.90;;;;;;5074935;28;20119;-75
2021/08/24 07:04:18;;;;;;;8.30;2.92;;;20.30;99.90;;;;;;5076310;28;20044;-76
2021/08/24 07:06:47;;;;;;;5.93;2.40;;;20.50;99.90;;;;;;5076352;28;20392;-75
2021/08/24 07:09:14;;;;;;;5.97;2.65;;;20.50;99.90;;;;;;5075839;28;20047;-75
2021/08/24 07:11:40;;;;;;;5.63;2.90;;;20.30;99.90;;;;;;5076541;28;20044;-75
2021/08/24 07:14:06;;;;;;;6.70;3.45;;;20.30;99.90;;;;;;5075904;28;20032;-75
2021/08/24 07:16:32;;;;;;;11.38;3.47;;;20.50;99.90;;;;;;5074795;28;20040;-75
2021/08/24 07:18:58;;;;;;;8.05;2.92;;;20.70;99.90;;;;;;5075735;28;20063;-75
2021/08/24 07:21:25;;;;;;;4.65;2.40;;;20.90;99.90;;;;;;5075900;28;20083;-74
2021/08/24 07:23:51;;;;;;;5.40;3.08;;;20.90;99.90;;;;;;5075792;28;20178;-75
2021/08/24 07:26:18;;;;;;;5.63;2.88;;;20.70;99.90;;;;;;5075918;28;20048;-75
2021/08/24 07:28:44;;;;;;;7.80;3.10;;;20.60;99.90;;;;;;5074162;28;20040;-74
2021/08/24 07:31:10;;;;;;;8.18;3.50;;;20.40;99.90;;;;;;5076206;28;20040;-75
2021/08/24 07:33:36;;;;;;;4.68;2.90;;;20.20;99.90;;;;;;5074333;28;20037;-74
2021/08/24 07:36:03;;;;;;;7.38;3.03;;;20.40;99.90;;;;;;5075718;28;20181;-75
2021/08/24 07:38:29;;;;;;;6.45;2.33;;;20.80;99.90;;;;;;5075309;28;20036;-76
2021/08/24 07:40:54;;;;;;;8.90;2.70;;;20.70;99.90;;;;;;5075377;28;20043;-76
2021/08/24 07:43:23;;;;;;;4.47;2.20;;;21.00;99.90;;;;;;5075668;28;20036;-75
2021/08/24 07:45:48;;;;;;;7.50;2.42;;;20.80;99.90;;;;;;5075657;28;20036;-75
2021/08/24 07:48:14;;;;;;;8.10;2.72;;;20.50;99.90;;;;;;5075770;28;20062;-74
2021/08/24 07:50:40;;;;;;;5.07;2.58;;;20.40;99.90;;;;;;5075518;28;20539;-75
2021/08/24 07:53:06;;;;;;;9.23;2.60;;;20.20;99.90;;;;;;5075321;28;20083;-75
2021/08/24 07:55:34;;;;;;;7.00;3.03;;;20.10;99.90;;;;;;5075594;28;20047;-75
2021/08/24 07:58:00;;;;;;;8.80;3.17;;;20.20;99.90;;;;;;5073318;28;20048;-75
2021/08/24 08:00:26;;;;;;;5.93;2.50;;;20.40;99.90;;;;;;5074785;28;20373;-76
2021/08/24 08:02:52;;;;;;;5.35;2.78;;;20.20;99.90;;;;;;5074425;28;20028;-77
2021/08/24 08:05:22;;;;;;;9.57;2.58;;;20.50;99.90;;;;;;5075412;28;20508;-77
2021/08/24 08:07:47;;;;;;;6.07;2.20;;;20.60;99.90;;;;;;5075120;28;20037;-76
2021/08/24 08:10:13;;;;;;;5.72;2.13;;;20.90;99.90;;;;;;5057200;28;20403;-76
2021/08/24 08:12:42;;;;;;;5.20;2.10;;;20.90;99.90;;;;;;5074886;28;20476;-77
2021/08/24 08:15:10;;;;;;;6.15;2.63;;;21.10;99.90;;;;;;5074826;28;20047;-76
2021/08/24 08:17:35;;;;;;;7.50;2.25;;;21.20;99.90;;;;;;5075213;28;20041;-75
2021/08/24 08:20:01;;;;;;;3.90;1.85;;;21.40;99.90;;;;;;5074673;28;20116;-76
2021/08/24 08:22:27;;;;;;;8.35;2.40;;;21.30;99.90;;;;;;5074915;28;20163;-75
2021/08/24 08:24:56;;;;;;;6.15;2.17;;;21.30;99.90;;;;;;5074644;28;20052;-75
2021/08/24 08:27:21;;;;;;;3.92;1.60;;;21.10;99.90;;;;;;5073971;28;20384;-76
2021/08/24 08:29:47;;;;;;;4.93;2.00;;;21.00;99.90;;;;;;5073383;28;20044;-75
2021/08/24 08:32:19;;;;;;;5.65;1.95;;;20.80;99.90;;;;;;5073313;28;20049;-75
2021/08/24 08:34:45;;;;;;;7.78;1.95;;;20.80;99.90;;;;;;5074634;28;20040;-75
2021/08/24 08:37:11;;;;;;;5.72;2.22;;;21.10;99.90;;;;;;5074385;28;20032;-76
2021/08/24 08:39:36;;;;;;;6.15;1.90;;;21.00;99.90;;;;;;5074039;28;20044;-75
2021/08/24 08:42:25;;;;;;;4.15;1.85;;;20.90;99.90;;;;;;5074537;28;20082;-77
2021/08/24 08:45:10;;;;;;;9.07;2.53;;;21.10;99.90;;;;;;5073309;28;20048;-77
2021/08/24 08:48:00;;;;;;;6.43;1.92;;;21.40;99.90;;;;;;5074350;28;20608;-76
2021/08/24 08:51:08;;;;;;;5.07;2.03;;;21.40;99.90;;;;;;5073829;28;20468;-75
2021/08/24 08:53:55;;;;;;;7.85;2.58;;;21.30;99.90;;;;;;5073917;28;20491;-76
2021/08/24 08:56:33;;;;;;;6.28;1.95;;;20.90;99.90;;;;;;5073050;28;20048;-77
2021/08/24 08:59:12;;;;;;;4.53;2.17;;;20.90;99.90;;;;;;5073693;28;20472;-76
2021/08/24 09:01:46;;;;;;;4.50;2.10;;;20.50;99.90;;;;;;5073929;28;20040;-75
2021/08/24 09:04:37;;;;;;;3.88;1.63;;;20.30;99.90;;;;;;5074289;28;20067;-76
2021/08/24 09:07:13;;;;;;;3.72;1.48;;;20.50;99.90;;;;;;5072464;28;20170;-74
2021/08/24 09:09:39;;;;;;;7.30;2.00;;;20.60;99.90;;;;;;5073533;28;20119;-75
2021/08/24 09:12:07;;;;;;;5.13;2.15;;;20.40;99.90;;;;;;5074080;28;20124;-76
2021/08/24 09:14:44;;;;;;;4.80;2.00;;;20.40;99.90;;;;;;5073826;28;20067;-76
2021/08/24 09:17:32;;;;;;;4.38;2.13;;;20.80;99.90;;;;;;5073895;28;20111;-75
2021/08/24 09:20:18;;;;;;;7.45;2.60;;;20.60;99.90;;;;;;5073001;28;20033;-76
2021/08/24 09:22:44;;;;;;;4.38;2.38;;;20.70;99.90;;;;;;5073421;28;20496;-76
2021/08/24 09:25:17;;;;;;;6.30;2.50;;;20.90;99.90;;;;;;5055552;28;20102;-76
2021/08/24 09:27:57;;;;;;;4.38;2.65;;;20.90;99.90;;;;;;5073582;28;20124;-71
2021/08/24 09:30:24;;;;;;;5.45;2.90;;;20.50;99.90;;;;;;5073415;28;20039;-75
2021/08/24 09:32:50;;;;;;;6.97;3.45;;;20.20;99.90;;;;;;5072279;28;20043;-74
2021/08/24 09:35:42;;;;;;;9.88;2.47;;;20.00;99.90;;;;;;5073223;28;20047;-75
2021/08/24 09:38:21;;;;;;;7.60;2.70;;;20.20;99.90;;;;;;5055841;28;20052;-75
2021/08/24 09:40:48;;;;;;;4.20;2.63;;;20.30;99.90;;;;;;5073225;28;20093;-75
2021/08/24 09:43:32;;;;;;;8.13;2.72;;;20.40;99.90;;;;;;5073615;28;20048;-74
2021/08/24 09:46:33;;;;;;;7.65;2.17;;;20.40;99.90;;;;;;5073148;28;20048;-74
2021/08/24 09:49:26;;;;;;;5.90;2.40;;;20.20;99.90;;;;;;5072854;28;20557;-74
2021/08/24 09:51:57;;;;;;;6.38;2.60;;;20.00;99.90;;;;;;5073009;28;20037;-74
2021/08/24 09:54:33;;;;;;;6.03;2.78;;;20.40;99.90;;;;;;5072238;28;20439;-74
2021/08/24 09:57:03;;;;;;;7.43;2.65;;;20.60;99.90;;;;;;5072588;28;20047;-74
2021/08/24 09:59:35;;;;;;;7.95;3.10;;;20.50;99.90;;;;;;5072986;28;20040;-74
2021/08/24 10:02:02;;;;;;;6.55;3.03;;;20.60;99.90;;;;;;5072896;28;20495;-74
2021/08/24 10:04:28;;;;;;;7.00;2.67;;;20.50;99.90;;;;;;5072963;28;20132;-74
2021/08/24 10:06:56;;;;;;;3.58;2.40;;;20.80;99.90;;;;;;5073532;28;20115;-74
2021/08/24 10:09:36;;;;;;;8.23;2.92;;;21.10;99.90;;;;;;5072634;28;20041;-72
2021/08/24 10:12:13;;;;;;;9.07;2.90;;;21.10;99.90;;;;;;5071662;28;20480;-72
2021/08/24 10:14:39;;;;;;;5.72;2.97;;;21.00;99.90;;;;;;5072852;28;20565;-72
2021/08/24 10:17:13;;;;;;;6.28;3.17;;;20.90;99.90;;;;;;5072392;28;20059;-72
2021/08/24 10:19:42;;;;;;;6.80;2.58;;;20.90;99.90;;;;;;5073000;28;20037;-72
2021/08/24 10:22:24;;;;;;;5.30;2.90;;;21.10;99.90;;;;;;5073074;28;20028;-72
2021/08/24 10:24:57;;;;;;;6.82;3.08;;;21.00;99.90;;;;;;5072974;28;20048;-74
2021/08/24 10:27:27;;;;;;;;;;;21.00;99.90;;;;;;5073112;28;20053;-72
2021/08/24 10:29:56;;;;;;;6.78;2.80;;;20.90;99.90;;;;;;5072461;28;20354;-72
2021/08/24 10:32:32;;;;;;;7.93;2.92;;;20.80;99.90;;;;;;5075999;28;20055;-72
2021/08/24 10:35:07;;;;;;;5.35;2.45;;;21.00;99.90;;;;;;5077287;28;20150;-72
2021/08/24 10:37:45;;;;;;;4.07;2.65;;;21.00;99.90;;;;;;5076855;28;20050;-72
2021/08/24 10:40:10;;;;;;;5.80;2.58;;;21.00;99.90;;;;;;5076485;28;20134;-72
2021/08/24 10:42:41;;;;;;;6.35;2.05;;;21.30;99.90;;;;;;5076826;28;20490;-72
2021/08/24 10:45:22;;;;;;;4.20;2.60;;;21.10;99.90;;;;;;5075523;28;20107;-73
2021/08/24 10:47:54;;;;;;;4.63;2.05;;;21.40;99.90;;;;;;5076674;28;20036;-72
2021/08/24 10:50:23;;;;;;;4.82;2.42;;;21.60;99.90;;;;;;5074973;28;20040;-69
2021/08/24 10:53:26;;;;;;;10.43;2.92;;;21.70;99.90;;;;;;5076607;28;20032;-72
2021/08/24 10:55:59;;;;;;;6.35;2.42;;;21.70;99.90;;;;;;5075334;28;20101;-72
2021/08/24 10:58:36;;;;;;;5.60;2.42;;;21.60;99.90;;;;;;5076850;28;20040;-73
2021/08/24 11:01:22;;;;;;;5.18;2.40;;;21.60;98.90;;;;;;5076306;28;20151;-68
2021/08/24 11:04:00;;;;;;;6.40;2.35;;;21.70;99.10;;;;;;5076709;28;20040;-69
2021/08/24 11:06:45;;;;;;;5.82;2.30;;;21.70;98.50;;;;;;5075151;28;20048;-70
2021/08/24 11:09:40;;;;;;;6.28;3.00;;;21.70;98.20;;;;;;5074800;28;20080;-69
2021/08/24 11:12:27;;;;;;;5.00;3.17;;;21.70;99.90;;;;;;5074820;28;20036;-69
2021/08/24 11:15:07;;;;;;;6.57;2.70;;;21.60;99.90;;;;;;5074936;28;20052;-69
2021/08/24 11:17:50;;;;;;;5.90;2.92;;;21.60;99.90;;;;;;5075208;28;20543;-69
2021/08/24 11:20:34;;;;;;;5.35;2.10;;;21.40;99.90;;;;;;5075787;28;20036;-70
2021/08/24 11:23:08;;;;;;;6.18;2.60;;;21.50;99.90;;;;;;5075976;28;20446;-69
2021/08/24 11:25:59;;;;;;;6.82;2.40;;;21.40;99.90;;;;;;5074652;28;20044;-69
2021/08/24 11:28:51;;;;;;;4.63;3.00;;;21.50;99.90;;;;;;5074845;28;20045;-70
2021/08/24 11:31:44;;;;;;;8.88;2.25;;;21.50;99.40;;;;;;5075895;28;20041;-69
2021/08/24 11:34:15;;;;;;;5.93;2.90;;;21.50;99.90;;;;;;5075809;28;20052;-70
2021/08/24 11:36:45;;;;;;;7.03;2.42;;;21.60;99.90;;;;;;5075665;28;20169;-70
2021/08/24 11:39:19;;;;;;;3.95;2.55;;;21.50;99.90;;;;;;5074110;28;20041;-69
2021/08/24 11:41:47;;;;;;;5.40;3.15;;;21.40;99.90;;;;;;5075951;28;20040;-69
2021/08/24 11:44:24;;;;;;;5.15;2.78;;;21.30;99.90;;;;;;5075136;28;20037;-70
2021/08/24 11:47:08;;;;;;;5.00;3.05;;;21.20;99.90;;;;;;5075863;28;20046;-69
2021/08/24 11:49:51;;;;;;;5.90;3.00;;;21.10;99.90;;;;;;5075498;28;20049;-70
2021/08/24 11:52:20;;;;;;;7.03;3.45;;;21.00;99.90;;;;;;5074074;28;20480;-69
2021/08/24 11:55:08;;;;;;;4.88;2.63;;;21.00;99.90;;;;;;5074027;28;20055;-70
2021/08/24 11:57:46;;;;;;;4.05;1.80;;;21.00;99.20;;;;;;5075234;28;20044;-69
2021/08/24 12:00:15;;;;;;;4.90;2.55;;;21.10;98.60;;;;;;5075511;28;20046;-69
2021/08/24 12:02:47;;;;;;;5.13;2.60;;;21.10;98.10;;;;;;5075234;28;20399;-69
2021/08/24 12:05:35;;;;;;;7.00;2.88;;;21.30;98.00;;;;;;5074954;28;20052;-70
2021/08/24 12:08:07;;;;;;;4.30;2.20;;;21.50;96.70;;;;;;5075135;28;20051;-69
2021/08/24 12:11:01;;;;;;;6.82;2.88;;;21.30;96.90;;;;;;5074574;28;20429;-69
2021/08/24 12:13:53;;;;;;;6.35;2.58;;;21.40;95.20;;;;;;5074971;28;20032;-69
2021/08/24 12:16:22;;;;;;;5.55;2.78;;;21.40;95.80;;;;;;5090276;28;20424;-69
2021/08/24 12:19:10;;;;;;;4.45;2.60;;;21.40;96.20;;;;;;5073288;28;20408;-70
2021/08/24 12:22:21;;;;;;;5.40;2.20;;;21.40;99.20;;;;;;5074815;28;20086;-69
2021/08/24 12:24:54;;;;;;;5.05;2.35;;;21.60;95.20;;;;;;5074637;28;20037;-69
2021/08/24 12:27:20;;;;;;;7.03;2.15;;;22.00;93.50;;;;;;5073785;28;20044;-69
2021/08/24 12:29:45;;;;;;;3.95;2.38;;;22.10;91.50;;;;;;5074254;28;20036;-68
2021/08/24 12:32:20;;;;;;;5.15;2.40;;;22.10;91.70;;;;;;5073213;28;20152;-68
2021/08/24 12:34:52;;;;;;;3.42;2.13;;;21.90;91.50;;;;;;5073194;28;20395;-69
2021/08/24 12:37:20;;;;;;;4.50;1.92;;;22.00;91.00;;;;;;5057070;28;20477;-68
2021/08/24 12:39:50;;;;;;;2.88;1.85;;;21.90;91.70;;;;;;5072874;28;20522;-68
2021/08/24 12:42:19;;;;;;;4.45;2.20;;;21.70;85.20;;;;;;5074290;28;20037;-69
2021/08/24 12:44:48;;;;;;;6.82;1.90;;;21.90;81.10;;;;;;5073980;28;20071;-68
2021/08/24 12:47:29;;;;;;;5.07;1.73;;;21.90;81.60;;;;;;5074418;28;20036;-68
2021/08/24 12:50:18;;;;;;;3.78;1.98;;;22.00;82.30;;;;;;5072838;28;20062;-70
2021/08/24 12:52:45;;;;;;;2.60;2.08;;;22.20;81.80;;;;;;5072845;28;20036;-68
2021/08/24 12:55:36;;;;;;;3.10;2.08;;;22.20;86.10;;;;;;5073105;28;20508;-68
2021/08/24 12:58:02;;;;;;;2.63;1.80;;;22.00;84.40;;;;;;5072930;28;20040;-68
2021/08/24 13:00:40;;;;;;;3.63;1.80;;;21.80;88.50;;;;;;5073759;28;20427;-69
2021/08/24 13:03:25;;;;;;;7.05;2.00;;;22.10;88.30;;;;;;5072894;28;20052;-69
2021/08/24 13:06:15;;;;;;;5.35;2.50;;;22.20;86.80;;;;;;5079808;28;20044;-69
2021/08/24 13:08:42;;;;;;;4.43;2.15;;;22.20;88.80;;;;;;5092686;28;20564;-71